Time;durP1;ratioP1;P1;durP2;ratioP2;P2;SDS_P1;SDS_P2;PMS_P1;PMS_P2;Temp;Humidity;BMP_temperature;BMP_pressure;BME280_temperature;BME280_humidity;BME280_pressure;Samples;Min_cycle;Max_cycle;Signal;HPM_P1;HPM_P2
2022/03/02 00:02:16;;;;;;;30.85;25.35;;;5.60;94.30;;;;;;4991286;28;20113;-69
2022/03/02 00:04:42;;;;;;;30.77;24.17;;;5.70;94.10;;;;;;4989580;28;20038;-69
2022/03/02 00:07:07;;;;;;;34.15;26.25;;;5.70;94.30;;;;;;5006940;28;20037;-69
2022/03/02 00:09:33;;;;;;;31.02;25.08;;;5.70;94.40;;;;;;4986312;28;20461;-69
2022/03/02 00:11:59;;;;;;;32.28;25.48;;;5.70;94.60;;;;;;5005129;28;20053;-69
2022/03/02 00:14:25;;;;;;;32.15;25.77;;;5.70;94.40;;;;;;5005503;28;20057;-69
2022/03/02 00:16:50;;;;;;;31.58;25.08;;;5.70;94.30;;;;;;5004076;28;20034;-69
2022/03/02 00:19:17;;;;;;;30.05;25.25;;;5.70;94.50;;;;;;5004514;28;20045;-69
2022/03/02 00:21:43;;;;;;;28.83;22.98;;;5.70;94.40;;;;;;5010328;28;20524;-69
2022/03/02 00:24:08;;;;;;;32.17;25.08;;;5.70;94.30;;;;;;5003459;28;20042;-69
2022/03/02 00:26:34;;;;;;;33.47;26.20;;;5.70;94.50;;;;;;5006034;28;20462;-69
2022/03/02 00:29:01;;;;;;;29.48;23.98;;;5.70;94.60;;;;;;5004312;28;20037;-69
2022/03/02 00:31:27;;;;;;;29.20;25.05;;;5.70;95.00;;;;;;4989442;28;20046;-69
2022/03/02 00:33:53;;;;;;;32.08;25.13;;;5.60;94.90;;;;;;5005271;28;20026;-69
2022/03/02 00:36:20;;;;;;;33.72;27.02;;;5.70;94.90;;;;;;4993148;28;20033;-69
2022/03/02 00:38:46;;;;;;;33.28;26.40;;;5.60;95.00;;;;;;4972465;28;20371;-69
2022/03/02 00:41:11;;;;;;;34.42;26.77;;;5.60;95.30;;;;;;5004004;28;20072;-69
2022/03/02 00:43:37;;;;;;;34.50;27.10;;;5.60;95.40;;;;;;4988203;28;20132;-69
2022/03/02 00:46:03;;;;;;;33.05;26.30;;;5.60;95.60;;;;;;4990485;28;20046;-69
2022/03/02 00:48:29;;;;;;;34.22;27.30;;;5.60;95.20;;;;;;4985551;28;20548;-69
2022/03/02 00:50:55;;;;;;;31.67;26.02;;;5.50;95.40;;;;;;4986913;28;20457;-69
2022/03/02 00:53:20;;;;;;;33.75;26.73;;;5.50;95.50;;;;;;4987890;28;20385;-69
2022/03/02 00:55:46;;;;;;;34.03;26.13;;;5.50;95.20;;;;;;5001186;28;20053;-69
2022/03/02 00:58:12;;;;;;;36.90;28.40;;;5.50;95.20;;;;;;5005757;28;20063;-69
2022/03/02 01:00:38;;;;;;;31.45;26.58;;;5.50;95.40;;;;;;5005410;28;20072;-69
2022/03/02 01:03:04;;;;;;;34.60;27.20;;;5.50;95.40;;;;;;5004466;28;20133;-69
2022/03/02 01:05:30;;;;;;;32.72;25.85;;;5.40;95.40;;;;;;4989826;28;20045;-69
2022/03/02 01:07:55;;;;;;;31.92;26.67;;;5.40;95.60;;;;;;5003257;28;20053;-69
2022/03/02 01:10:21;;;;;;;33.90;26.20;;;5.40;95.40;;;;;;5001143;28;20030;-69
2022/03/02 01:12:47;;;;;;;37.63;27.08;;;5.40;95.40;;;;;;5004428;28;20397;-69
2022/03/02 01:15:13;;;;;;;34.13;25.67;;;5.40;95.60;;;;;;4992709;28;20050;-69
2022/03/02 01:17:40;;;;;;;35.05;26.00;;;5.40;95.60;;;;;;4987452;28;20045;-69
2022/03/02 01:20:09;;;;;;;33.42;25.88;;;5.40;95.90;;;;;;5001989;28;20075;-69
2022/03/02 01:22:35;;;;;;;34.22;26.95;;;5.40;95.90;;;;;;5010882;28;20529;-69
2022/03/02 01:25:02;;;;;;;33.83;27.50;;;5.40;96.10;;;;;;4989154;28;20560;-69
2022/03/02 01:27:27;;;;;;;35.20;27.52;;;5.40;96.10;;;;;;5005435;28;20490;-69
2022/03/02 01:29:53;;;;;;;34.35;25.85;;;5.40;96.20;;;;;;5005056;28;20041;-69
2022/03/02 01:32:20;;;;;;;34.28;26.27;;;5.30;96.20;;;;;;4989033;28;20049;-69
2022/03/02 01:34:46;;;;;;;35.22;25.55;;;5.40;96.00;;;;;;5003543;28;20042;-69
2022/03/02 01:37:12;;;;;;;34.13;26.25;;;5.40;96.00;;;;;;4989306;28;20046;-69
2022/03/02 01:39:38;;;;;;;33.42;25.30;;;5.40;96.00;;;;;;4987148;28;20057;-69
2022/03/02 01:42:07;;;;;;;34.67;26.83;;;5.40;95.90;;;;;;4988014;28;20080;-69
2022/03/02 01:44:35;;;;;;;33.58;26.42;;;5.40;96.20;;;;;;5005620;28;20508;-69
2022/03/02 01:47:01;;;;;;;37.22;26.35;;;5.40;96.40;;;;;;5004400;28;20854;-69
2022/03/02 01:49:26;;;;;;;35.45;28.10;;;5.40;96.20;;;;;;5000561;28;21076;-69
2022/03/02 01:51:52;;;;;;;30.35;25.58;;;5.40;95.90;;;;;;4987683;28;20487;-69
2022/03/02 01:54:18;;;;;;;34.08;26.50;;;5.40;96.00;;;;;;5002529;28;20046;-69
2022/03/02 01:56:44;;;;;;;32.25;26.45;;;5.40;95.80;;;;;;4986139;28;20039;-69
2022/03/02 01:59:11;;;;;;;31.85;26.50;;;5.40;95.90;;;;;;5003768;28;20111;-69
2022/03/02 02:01:36;;;;;;;33.63;25.83;;;5.50;95.80;;;;;;4991557;28;20045;-69
2022/03/02 02:04:04;;;;;;;34.90;27.17;;;5.40;95.80;;;;;;4990813;28;20041;-69
2022/03/02 02:06:30;;;;;;;34.30;26.40;;;5.40;96.00;;;;;;5008884;28;20042;-69
2022/03/02 02:08:58;;;;;;;36.20;28.50;;;5.40;96.00;;;;;;4991707;28;20467;-69
2022/03/02 02:11:24;;;;;;;36.67;27.20;;;5.40;96.20;;;;;;5007170;28;20133;-69
2022/03/02 02:13:50;;;;;;;31.75;26.25;;;5.40;96.10;;;;;;4992520;28;20141;-69
2022/03/02 02:16:17;;;;;;;33.53;27.02;;;5.30;96.30;;;;;;4996015;28;20046;-69
2022/03/02 02:18:43;;;;;;;33.47;26.48;;;5.30;96.50;;;;;;5005490;28;20172;-69
2022/03/02 02:21:09;;;;;;;33.47;25.75;;;5.30;96.20;;;;;;4985493;28;20048;-69
2022/03/02 02:23:36;;;;;;;34.78;27.58;;;5.30;96.30;;;;;;5010405;28;20041;-69
2022/03/02 02:26:04;;;;;;;35.80;27.48;;;5.30;96.60;;;;;;5005487;28;20600;-69
2022/03/02 02:28:31;;;;;;;34.60;27.85;;;5.20;96.80;;;;;;5008507;28;20057;-69
2022/03/02 02:30:58;;;;;;;35.08;27.17;;;5.20;96.80;;;;;;5007736;28;20041;-69
2022/03/02 02:33:26;;;;;;;36.40;27.77;;;5.20;96.50;;;;;;4988988;28;20038;-69
2022/03/02 02:35:52;;;;;;;36.58;26.92;;;5.20;96.50;;;;;;4992621;28;20049;-69
2022/03/02 02:38:21;;;;;;;37.08;27.08;;;5.20;96.70;;;;;;5012191;28;20180;-69
2022/03/02 02:40:47;;;;;;;39.67;27.92;;;5.20;96.80;;;;;;5007381;28;20099;-69
2022/03/02 02:43:15;;;;;;;37.08;26.55;;;5.10;97.00;;;;;;4987913;28;20072;-69
2022/03/02 02:45:41;;;;;;;38.20;28.42;;;5.10;96.90;;;;;;5005553;28;20084;-69
2022/03/02 02:48:07;;;;;;;34.70;28.13;;;5.10;97.40;;;;;;5005818;28;20555;-69
2022/03/02 02:50:34;;;;;;;37.63;28.17;;;5.00;98.50;;;;;;5008046;28;20038;-69
2022/03/02 02:53:02;;;;;;;37.08;28.30;;;5.00;98.40;;;;;;4992541;28;20964;-69
2022/03/02 02:55:29;;;;;;;37.92;29.67;;;4.90;98.60;;;;;;5003614;28;20046;-69
2022/03/02 02:57:57;;;;;;;41.85;29.35;;;4.90;98.80;;;;;;4990490;28;20049;-69
2022/03/02 03:00:26;;;;;;;37.97;29.38;;;4.90;99.20;;;;;;4991669;28;20046;-69
2022/03/02 03:02:53;;;;;;;37.75;29.30;;;4.90;99.00;;;;;;5008354;28;20374;-69
2022/03/02 03:05:23;;;;;;;36.70;28.50;;;4.90;99.70;;;;;;5008376;28;20449;-69
2022/03/02 03:07:50;;;;;;;37.38;29.70;;;4.90;99.80;;;;;;4991186;28;20043;-69
2022/03/02 03:10:16;;;;;;;38.95;28.77;;;4.80;99.90;;;;;;4988219;28;20080;-69
2022/03/02 03:12:43;;;;;;;37.22;28.65;;;4.90;99.90;;;;;;4989246;28;20052;-69
2022/03/02 03:15:11;;;;;;;38.80;29.23;;;4.90;99.90;;;;;;5011885;28;20116;-69
2022/03/02 03:17:38;;;;;;;39.65;29.35;;;4.90;99.90;;;;;;5006897;28;20034;-69
2022/03/02 03:20:06;;;;;;;37.00;28.95;;;4.80;99.90;;;;;;4990283;28;20573;-69
2022/03/02 03:22:32;;;;;;;39.08;28.90;;;4.90;99.90;;;;;;5003967;28;20094;-69
2022/03/02 03:24:58;;;;;;;40.38;29.45;;;4.80;99.90;;;;;;5007427;28;20104;-69
2022/03/02 03:27:24;;;;;;;37.70;28.20;;;4.80;99.90;;;;;;5006054;28;20033;-69
2022/03/02 03:29:49;;;;;;;40.17;30.88;;;4.80;99.90;;;;;;4987661;28;20104;-69
2022/03/02 03:32:15;;;;;;;37.55;29.55;;;4.80;99.90;;;;;;4990024;28;20056;-69
2022/03/02 03:34:41;;;;;;;40.28;29.77;;;4.80;99.90;;;;;;5008589;28;20034;-69
2022/03/02 03:37:08;;;;;;;39.22;29.13;;;4.80;99.90;;;;;;5005069;28;20041;-69
2022/03/02 03:39:34;;;;;;;37.67;30.08;;;4.80;99.90;;;;;;5007050;28;20058;-69
2022/03/02 03:41:59;;;;;;;38.67;30.17;;;4.80;99.90;;;;;;5010487;28;20073;-69
2022/03/02 03:44:25;;;;;;;40.10;30.75;;;4.80;99.90;;;;;;5005745;28;20698;-68
2022/03/02 03:46:51;;;;;;;39.97;29.77;;;4.80;99.90;;;;;;5004633;28;20034;-68
2022/03/02 03:49:17;;;;;;;40.67;29.85;;;4.70;99.90;;;;;;4975815;28;20477;-69
2022/03/02 03:51:43;;;;;;;39.28;29.50;;;4.80;99.90;;;;;;5003220;28;20083;-69
2022/03/02 03:54:10;;;;;;;40.67;30.10;;;4.70;99.90;;;;;;4989385;28;20041;-69
2022/03/02 03:56:36;;;;;;;41.13;31.52;;;4.70;99.90;;;;;;4976317;28;20049;-69
2022/03/02 03:59:03;;;;;;;39.55;29.90;;;4.70;99.90;;;;;;4986953;28;20089;-69
2022/03/02 04:01:28;;;;;;;44.03;31.63;;;4.70;99.90;;;;;;4990452;28;20462;-69
2022/03/02 04:03:54;;;;;;;41.90;31.50;;;4.70;99.90;;;;;;4989440;28;20042;-69
2022/03/02 04:06:20;;;;;;;41.00;30.70;;;4.70;99.90;;;;;;4988783;28;20177;-69
2022/03/02 04:08:46;;;;;;;43.53;31.52;;;4.70;99.90;;;;;;5004331;28;20092;-69
2022/03/02 04:11:12;;;;;;;40.70;30.98;;;4.60;99.90;;;;;;4986682;28;20082;-69
2022/03/02 04:13:38;;;;;;;40.90;31.55;;;4.60;99.90;;;;;;5010433;28;20135;-69
2022/03/02 04:16:05;;;;;;;42.28;32.38;;;4.60;99.90;;;;;;5001402;28;20504;-69
2022/03/02 04:18:31;;;;;;;41.40;31.88;;;4.60;99.90;;;;;;5008638;28;20069;-69
2022/03/02 04:20:58;;;;;;;40.80;30.48;;;4.60;99.90;;;;;;5003913;28;20049;-69
2022/03/02 04:23:24;;;;;;;42.58;32.10;;;4.60;99.90;;;;;;4990429;28;20156;-69
2022/03/02 04:25:50;;;;;;;42.42;31.70;;;4.50;99.90;;;;;;5001521;28;20054;-69
2022/03/02 04:28:16;;;;;;;45.00;33.35;;;4.50;99.90;;;;;;4987737;28;20980;-69
2022/03/02 04:30:42;;;;;;;44.80;32.85;;;4.50;99.90;;;;;;4985415;28;20042;-69
2022/03/02 04:33:07;;;;;;;44.55;33.47;;;4.50;99.90;;;;;;5005655;28;20049;-69
2022/03/02 04:35:34;;;;;;;43.15;32.15;;;4.40;99.90;;;;;;4986760;28;20232;-69
2022/03/02 04:38:01;;;;;;;43.90;32.45;;;4.40;99.90;;;;;;5008137;28;20394;-69
2022/03/02 04:40:27;;;;;;;46.65;32.80;;;4.40;99.90;;;;;;4992480;28;20046;-69
2022/03/02 04:42:54;;;;;;;40.35;31.20;;;4.40;99.90;;;;;;4987064;28;20092;-69
2022/03/02 04:45:23;;;;;;;42.80;33.00;;;4.30;99.90;;;;;;5006800;28;20041;-69
2022/03/02 04:47:48;;;;;;;44.88;32.53;;;4.30;99.90;;;;;;4999550;28;20112;-69
2022/03/02 04:50:16;;;;;;;41.70;31.70;;;4.30;99.90;;;;;;4989990;28;20429;-69
2022/03/02 04:52:42;;;;;;;43.33;32.05;;;4.30;99.90;;;;;;4983834;28;20530;-69
2022/03/02 04:55:09;;;;;;;41.97;32.38;;;4.20;99.90;;;;;;5003890;28;20042;-69
2022/03/02 04:57:44;;;;;;;43.30;32.83;;;4.20;99.90;;;;;;5002851;28;20485;-69
2022/03/02 05:00:16;;;;;;;43.03;31.55;;;4.20;99.90;;;;;;5007443;28;20049;-69
2022/03/02 05:02:42;;;;;;;45.90;33.08;;;4.10;99.90;;;;;;5005328;28;20421;-69
2022/03/02 05:05:11;;;;;;;44.65;33.30;;;4.10;99.90;;;;;;5007302;28;20056;-69
2022/03/02 05:07:37;;;;;;;46.03;32.65;;;4.00;99.90;;;;;;4987214;28;20584;-69
2022/03/02 05:10:05;;;;;;;47.47;34.33;;;4.00;99.90;;;;;;4989769;28;20125;-69
2022/03/02 05:12:31;;;;;;;46.10;32.03;;;3.90;99.90;;;;;;5006179;28;20054;-69
2022/03/02 05:14:57;;;;;;;45.60;33.05;;;3.90;99.90;;;;;;5010472;28;20042;-69
2022/03/02 05:17:23;;;;;;;46.13;33.67;;;3.90;99.90;;;;;;4989041;28;20099;-69
2022/03/02 05:19:50;;;;;;;45.70;34.10;;;3.90;99.90;;;;;;4986123;28;20053;-69
2022/03/02 05:22:16;;;;;;;44.55;32.95;;;3.80;99.90;;;;;;4989810;28;20373;-69
2022/03/02 05:24:42;;;;;;;46.95;34.00;;;3.80;99.90;;;;;;4991698;28;20049;-69
2022/03/02 05:27:08;;;;;;;45.55;32.83;;;3.80;99.90;;;;;;5004170;28;20050;-69
2022/03/02 05:29:35;;;;;;;41.05;32.17;;;3.80;99.90;;;;;;4990560;28;20045;-69
2022/03/02 05:32:01;;;;;;;43.85;32.65;;;3.80;99.90;;;;;;5006563;28;20046;-69
2022/03/02 05:34:26;;;;;;;46.55;32.38;;;3.80;99.90;;;;;;4982912;28;20667;-69
2022/03/02 05:36:52;;;;;;;46.17;34.15;;;3.80;99.90;;;;;;4993604;28;20088;-69
2022/03/02 05:39:18;;;;;;;46.28;34.22;;;3.80;99.90;;;;;;5001409;28;20112;-69
2022/03/02 05:41:44;;;;;;;48.38;33.60;;;3.80;99.90;;;;;;4993802;28;20033;-69
2022/03/02 05:44:11;;;;;;;48.45;34.25;;;3.70;99.90;;;;;;5001999;28;20133;-69
2022/03/02 05:46:38;;;;;;;44.38;32.58;;;3.80;99.90;;;;;;5001410;28;20129;-69
2022/03/02 05:49:08;;;;;;;47.72;33.97;;;3.80;99.90;;;;;;4973818;28;20060;-69
2022/03/02 05:51:33;;;;;;;45.00;33.35;;;3.80;99.90;;;;;;4995016;28;20451;-69
2022/03/02 05:54:00;;;;;;;47.17;34.03;;;3.80;99.90;;;;;;4988365;28;20112;-68
2022/03/02 05:56:26;;;;;;;47.33;34.22;;;3.80;99.90;;;;;;5005363;28;20046;-68
2022/03/02 05:58:52;;;;;;;45.40;34.40;;;3.80;99.90;;;;;;4991288;28;20405;-68
2022/03/02 06:01:19;;;;;;;51.47;33.47;;;3.70;99.90;;;;;;4988366;28;20607;-68
2022/03/02 06:03:45;;;;;;;47.83;33.47;;;3.70;99.90;;;;;;4989546;28;20084;-69
2022/03/02 06:06:11;;;;;;;46.08;34.00;;;3.80;99.90;;;;;;4988345;28;20071;-69
2022/03/02 06:08:37;;;;;;;44.97;33.17;;;3.70;99.90;;;;;;4989648;28;20062;-69
2022/03/02 06:11:03;;;;;;;48.95;34.25;;;3.70;99.90;;;;;;4988911;28;20050;-69
2022/03/02 06:13:29;;;;;;;47.90;34.25;;;3.70;99.90;;;;;;4992815;28;20054;-69
2022/03/02 06:15:57;;;;;;;49.70;33.40;;;3.70;99.90;;;;;;5001831;28;20034;-69
2022/03/02 06:18:24;;;;;;;49.80;34.70;;;3.60;99.90;;;;;;5004618;28;20054;-69
2022/03/02 06:20:52;;;;;;;43.60;32.20;;;3.60;99.90;;;;;;4965130;28;20148;-69
2022/03/02 06:23:21;;;;;;;47.88;33.90;;;3.50;99.90;;;;;;4988737;28;20082;-69
2022/03/02 06:25:47;;;;;;;44.25;31.52;;;3.50;99.90;;;;;;5001594;28;20054;-69
2022/03/02 06:28:14;;;;;;;46.35;34.33;;;3.50;99.90;;;;;;4994651;28;20056;-69
2022/03/02 06:30:40;;;;;;;46.28;34.20;;;3.40;99.90;;;;;;4997690;28;20033;-69
2022/03/02 06:33:07;;;;;;;46.63;33.78;;;3.40;99.90;;;;;;5010160;28;20394;-69
2022/03/02 06:35:33;;;;;;;43.45;32.22;;;3.40;99.90;;;;;;5002337;28;20042;-69
2022/03/02 06:37:59;;;;;;;43.72;32.75;;;3.40;99.90;;;;;;4985487;28;20371;-69
2022/03/02 06:40:25;;;;;;;45.65;33.03;;;3.30;99.90;;;;;;4992362;28;20053;-69
2022/03/02 06:43:18;;;;;;;46.22;33.58;;;3.30;99.90;;;;;;5004882;28;20042;-69
2022/03/02 06:45:50;;;;;;;48.47;34.78;;;3.30;99.90;;;;;;4983877;28;20045;-69
2022/03/02 06:48:22;;;;;;;43.63;31.70;;;3.20;99.90;;;;;;4989276;28;20560;-69
2022/03/02 06:50:53;;;;;;;50.33;34.03;;;3.20;99.90;;;;;;4984240;28;20066;-69
2022/03/02 06:53:29;;;;;;;44.55;33.17;;;3.20;99.90;;;;;;5010248;28;20045;-69
2022/03/02 06:55:55;;;;;;;47.90;33.38;;;3.20;99.90;;;;;;4991531;28;20041;-69
2022/03/02 06:58:22;;;;;;;49.25;33.28;;;3.20;99.90;;;;;;5008666;28;20045;-69
2022/03/02 07:00:52;;;;;;;46.67;33.47;;;3.20;99.90;;;;;;5006635;28;20042;-69
2022/03/02 07:03:19;;;;;;;46.67;32.72;;;3.20;99.90;;;;;;4990038;28;20722;-69
2022/03/02 07:05:48;;;;;;;47.47;33.25;;;3.20;99.90;;;;;;4990199;28;20057;-69
2022/03/02 07:08:15;;;;;;;45.22;33.95;;;3.10;99.90;;;;;;4995322;28;20045;-69
2022/03/02 07:10:41;;;;;;;44.83;32.10;;;3.10;99.90;;;;;;5003623;28;20054;-69
2022/03/02 07:13:09;;;;;;;47.83;34.15;;;3.10;99.90;;;;;;4984289;28;20135;-69
2022/03/02 07:15:35;;;;;;;47.88;34.42;;;3.10;99.90;;;;;;4990426;28;20038;-69
2022/03/02 07:18:03;;;;;;;47.60;34.28;;;3.10;99.90;;;;;;4994272;28;20520;-69
2022/03/02 07:20:29;;;;;;;46.63;34.45;;;3.00;99.90;;;;;;5004206;28;20049;-69
2022/03/02 07:22:57;;;;;;;48.88;33.67;;;3.00;99.90;;;;;;4998866;28;20045;-69
2022/03/02 07:25:29;;;;;;;46.35;33.17;;;3.00;99.90;;;;;;4989567;28;20073;-69
2022/03/02 07:27:57;;;;;;;48.28;32.50;;;3.00;99.90;;;;;;5006651;28;20379;-69
2022/03/02 07:30:24;;;;;;;45.80;33.33;;;3.10;99.90;;;;;;4993851;28;20048;-69
2022/03/02 07:32:56;;;;;;;45.50;33.85;;;3.10;99.90;;;;;;4992077;28;20526;-69
2022/03/02 07:35:23;;;;;;;47.13;33.20;;;3.10;99.90;;;;;;5010813;28;20042;-69
2022/03/02 07:37:49;;;;;;;47.08;32.72;;;3.20;99.90;;;;;;4992484;28;20359;-69
2022/03/02 07:40:16;;;;;;;52.42;38.60;;;3.20;99.90;;;;;;4992115;28;20489;-69
2022/03/02 07:42:42;;;;;;;43.47;32.80;;;3.40;99.90;;;;;;5007001;28;20120;-69
2022/03/02 07:45:08;;;;;;;46.83;33.13;;;3.70;99.90;;;;;;4993696;28;20042;-69
2022/03/02 07:47:34;;;;;;;43.25;31.63;;;4.30;99.90;;;;;;4984232;28;20062;-69
2022/03/02 07:50:00;;;;;;;44.35;33.05;;;5.00;99.90;;;;;;4987185;28;20045;-69
2022/03/02 07:52:29;;;;;;;43.28;33.88;;;5.70;99.90;;;;;;5004493;28;20490;-70
2022/03/02 07:54:59;;;;;;;37.95;30.92;;;6.60;99.90;;;;;;5010834;28;20382;-70
2022/03/02 07:57:28;;;;;;;40.53;31.05;;;7.20;98.40;;;;;;5005032;28;20052;-70
2022/03/02 07:59:56;;;;;;;42.78;30.42;;;7.50;95.60;;;;;;5002360;28;20178;-70
2022/03/02 08:02:24;;;;;;;39.25;30.08;;;7.70;94.40;;;;;;5005114;28;20066;-69
2022/03/02 08:04:56;;;;;;;36.45;29.65;;;7.90;93.80;;;;;;5004343;28;20062;-69
2022/03/02 08:07:22;;;;;;;35.85;29.05;;;8.10;93.50;;;;;;4992088;28;20041;-69
2022/03/02 08:09:50;;;;;;;34.55;29.35;;;8.30;92.70;;;;;;4975997;28;20065;-69
2022/03/02 08:12:20;;;;;;;34.83;28.88;;;8.40;91.80;;;;;;5006412;28;20081;-70
2022/03/02 08:14:47;;;;;;;33.00;29.00;;;8.30;90.90;;;;;;4988576;28;20052;-70
2022/03/02 08:17:13;;;;;;;33.80;29.40;;;9.10;91.80;;;;;;4984843;28;20115;-70
2022/03/02 08:19:39;;;;;;;35.15;28.88;;;9.70;91.80;;;;;;4989860;28;20062;-70
2022/03/02 08:22:09;;;;;;;32.65;27.92;;;10.10;90.40;;;;;;4991389;28;20553;-70
2022/03/02 08:24:41;;;;;;;33.05;27.98;;;10.50;89.60;;;;;;4993929;28;20046;-70
2022/03/02 08:27:10;;;;;;;34.60;27.90;;;10.80;87.90;;;;;;5006584;28;20079;-70
2022/03/02 08:29:37;;;;;;;31.40;27.23;;;11.00;87.10;;;;;;5000597;28;20050;-70
2022/03/02 08:32:04;;;;;;;33.38;28.85;;;11.40;86.20;;;;;;5006582;28;20513;-70
2022/03/02 08:34:32;;;;;;;32.67;27.42;;;11.60;81.90;;;;;;5003585;28;20490;-70
2022/03/02 08:36:59;;;;;;;31.85;27.08;;;11.90;81.60;;;;;;5006401;28;20076;-70
2022/03/02 08:39:25;;;;;;;30.35;25.80;;;12.40;78.20;;;;;;5006083;28;20054;-70
2022/03/02 08:41:52;;;;;;;30.52;25.77;;;12.70;78.60;;;;;;5005890;28;20048;-70
2022/03/02 08:44:19;;;;;;;28.52;25.33;;;12.60;75.90;;;;;;5006550;28;20050;-70
2022/03/02 08:46:46;;;;;;;29.60;26.45;;;12.00;74.00;;;;;;5001145;28;20042;-70
2022/03/02 08:49:17;;;;;;;29.80;26.45;;;12.30;74.20;;;;;;5002013;28;20034;-70
2022/03/02 08:51:43;;;;;;;29.13;26.13;;;11.90;73.10;;;;;;5006438;28;20073;-70
2022/03/02 08:54:14;;;;;;;28.55;25.58;;;12.30;74.50;;;;;;5005198;28;20091;-70
2022/03/02 08:56:41;;;;;;;28.55;24.88;;;12.30;73.30;;;;;;4990540;28;20584;-70
2022/03/02 08:59:11;;;;;;;30.25;25.60;;;12.80;72.80;;;;;;4987092;28;20042;-70
2022/03/02 09:01:40;;;;;;;27.35;24.48;;;12.70;71.10;;;;;;5008594;28;20042;-70
2022/03/02 09:04:06;;;;;;;28.05;25.10;;;13.00;70.00;;;;;;4987087;28;20451;-70
2022/03/02 09:06:35;;;;;;;27.48;24.58;;;13.10;70.60;;;;;;5012553;28;20395;-70
2022/03/02 09:09:02;;;;;;;28.35;24.88;;;12.70;69.60;;;;;;5003680;28;20034;-70
2022/03/02 09:11:28;;;;;;;27.13;24.33;;;13.10;69.00;;;;;;5004412;28;20050;-70
2022/03/02 09:13:55;;;;;;;27.30;24.40;;;12.90;67.90;;;;;;5008659;28;20038;-70
2022/03/02 09:16:24;;;;;;;26.40;23.52;;;13.50;69.20;;;;;;5001369;28;20040;-70
2022/03/02 09:18:49;;;;;;;25.05;22.45;;;13.70;66.50;;;;;;4975503;28;20037;-70
2022/03/02 09:21:19;;;;;;;27.48;23.20;;;13.90;64.80;;;;;;5004151;28;20444;-70
2022/03/02 09:23:45;;;;;;;26.00;21.75;;;14.20;63.80;;;;;;5008052;28;20417;-70
2022/03/02 09:26:14;;;;;;;24.92;20.85;;;14.50;63.50;;;;;;5002654;28;20188;-70
2022/03/02 09:28:43;;;;;;;24.38;21.15;;;14.80;59.70;;;;;;5003528;28;20085;-70
2022/03/02 09:31:10;;;;;;;24.00;21.40;;;14.30;58.30;;;;;;4992937;28;20046;-68
2022/03/02 09:33:37;;;;;;;25.90;22.20;;;14.10;60.20;;;;;;5006235;28;20051;-69
2022/03/02 09:36:08;;;;;;;23.58;21.10;;;14.20;60.10;;;;;;4984851;28;20050;-70
2022/03/02 09:38:38;;;;;;;23.05;20.65;;;14.20;59.60;;;;;;5002318;28;20049;-69
2022/03/02 09:41:06;;;;;;;23.02;20.58;;;14.10;60.30;;;;;;5004945;28;20039;-69
2022/03/02 09:43:34;;;;;;;23.67;19.60;;;14.20;59.10;;;;;;4994170;28;20061;-69
2022/03/02 09:46:06;;;;;;;23.73;20.70;;;14.20;59.00;;;;;;4986392;28;20566;-70
2022/03/02 09:49:01;;;;;;;23.88;21.38;;;14.10;59.00;;;;;;5003867;28;20058;-70
2022/03/02 09:51:30;;;;;;;22.13;19.85;;;13.90;59.80;;;;;;5003309;28;20047;-70
2022/03/02 09:54:00;;;;;;;22.95;20.42;;;14.30;60.80;;;;;;5012318;28;20141;-70
2022/03/02 09:56:29;;;;;;;20.90;18.70;;;14.70;58.60;;;;;;5002422;28;20674;-70
2022/03/02 09:58:55;;;;;;;22.50;20.15;;;14.60;56.30;;;;;;5004137;28;20561;-70
2022/03/02 10:01:23;;;;;;;21.67;19.38;;;14.60;57.80;;;;;;5006014;28;20137;-69
2022/03/02 10:03:50;;;;;;;21.45;19.25;;;15.00;58.10;;;;;;4988620;28;20084;-69
2022/03/02 10:06:21;;;;;;;22.55;20.15;;;14.80;56.80;;;;;;4989323;28;20175;-69
2022/03/02 10:08:50;;;;;;;20.75;18.55;;;14.80;56.80;;;;;;5006794;28;20072;-70
2022/03/02 10:11:20;;;;;;;21.23;18.98;;;14.30;55.50;;;;;;5001737;28;20061;-69
2022/03/02 10:13:46;;;;;;;21.63;19.42;;;14.30;56.10;;;;;;5002576;28;20041;-69
2022/03/02 10:16:23;;;;;;;22.95;20.50;;;14.50;56.80;;;;;;4986278;28;20402;-69
2022/03/02 10:18:56;;;;;;;20.20;18.10;;;14.80;56.60;;;;;;5002628;28;20366;-70
2022/03/02 10:21:32;;;;;;;21.35;19.15;;;14.80;56.10;;;;;;4989672;28;20050;-70
2022/03/02 10:24:00;;;;;;;23.58;20.27;;;14.90;53.70;;;;;;5008913;28;20188;-70
2022/03/02 10:26:29;;;;;;;22.75;20.35;;;14.90;55.10;;;;;;4996226;28;20466;-70
2022/03/02 10:29:12;;;;;;;20.63;18.52;;;15.10;54.50;;;;;;4983938;28;20054;-70
2022/03/02 10:32:05;;;;;;;22.02;19.48;;;15.40;54.60;;;;;;5003448;28;20165;-70
2022/03/02 10:34:57;;;;;;;19.63;17.63;;;15.70;53.80;;;;;;4989757;28;20077;-70
2022/03/02 10:37:51;;;;;;;20.42;18.17;;;16.10;51.50;;;;;;4989449;28;20042;-70
2022/03/02 10:40:23;;;;;;;20.40;17.48;;;16.40;51.90;;;;;;5012910;28;20253;-70
2022/03/02 10:42:57;;;;;;;19.55;17.50;;;16.70;53.10;;;;;;5008416;28;20103;-70
2022/03/02 10:45:28;;;;;;;20.20;18.08;;;16.90;51.30;;;;;;5008630;28;20045;-72
2022/03/02 10:48:16;;;;;;;20.40;18.27;;;16.90;50.00;;;;;;5007156;28;20100;-70
2022/03/02 10:50:43;;;;;;;20.63;17.73;;;16.00;50.30;;;;;;4991673;28;20049;-70
2022/03/02 10:53:13;;;;;;;20.30;18.20;;;15.90;51.70;;;;;;5006413;28;20046;-70
2022/03/02 10:55:43;;;;;;;18.63;16.70;;;16.20;51.50;;;;;;4998029;28;20168;-70
2022/03/02 10:58:14;;;;;;;18.15;16.33;;;16.60;50.30;;;;;;5008334;28;20385;-70
2022/03/02 11:00:40;;;;;;;17.98;15.90;;;16.30;49.30;;;;;;4992963;28;20061;-70
2022/03/02 11:03:07;;;;;;;20.15;16.15;;;16.20;48.10;;;;;;4973856;28;20046;-70
2022/03/02 11:05:34;;;;;;;18.60;16.02;;;16.30;48.00;;;;;;5003837;28;20046;-70
2022/03/02 11:08:00;;;;;;;17.83;15.93;;;16.20;47.50;;;;;;4995108;28;20457;-70
2022/03/02 11:10:37;;;;;;;18.25;15.68;;;16.20;47.60;;;;;;4990143;28;20116;-70
2022/03/02 11:13:15;;;;;;;19.48;16.58;;;16.30;48.30;;;;;;4995909;28;20054;-70
2022/03/02 11:15:55;;;;;;;18.48;16.05;;;16.40;47.70;;;;;;4991305;28;20117;-71
2022/03/02 11:18:48;;;;;;;19.73;16.38;;;16.60;48.40;;;;;;4994005;28;20046;-71
2022/03/02 11:21:20;;;;;;;17.38;14.73;;;16.80;46.80;;;;;;4996518;28;20495;-71
2022/03/02 11:23:50;;;;;;;19.08;16.42;;;16.70;45.20;;;;;;4993342;28;20057;-71
2022/03/02 11:26:28;;;;;;;17.70;15.82;;;16.50;46.30;;;;;;4988121;28;20054;-71
2022/03/02 11:28:56;;;;;;;17.88;15.93;;;16.60;47.20;;;;;;4993991;28;20064;-71
2022/03/02 11:31:31;;;;;;;16.77;14.98;;;16.60;47.90;;;;;;5007703;28;20041;-71
2022/03/02 11:34:23;;;;;;;18.48;16.48;;;16.70;47.20;;;;;;4986639;28;20045;-71
2022/03/02 11:36:55;;;;;;;17.88;15.98;;;16.60;46.40;;;;;;4990550;28;20050;-71
2022/03/02 11:39:23;;;;;;;17.55;15.73;;;16.20;47.50;;;;;;4988405;28;20046;-71
2022/03/02 11:41:53;;;;;;;18.38;16.30;;;16.20;47.60;;;;;;5010943;28;20485;-71
2022/03/02 11:44:32;;;;;;;17.77;15.82;;;16.20;47.50;;;;;;5008953;28;20083;-71
2022/03/02 11:47:00;;;;;;;17.65;15.85;;;16.20;46.20;;;;;;5000935;28;20397;-71
2022/03/02 11:49:53;;;;;;;19.35;17.08;;;16.20;47.30;;;;;;4990928;28;20457;-71
2022/03/02 11:52:24;;;;;;;19.15;16.67;;;16.00;48.20;;;;;;4991994;28;20053;-71
2022/03/02 11:55:12;;;;;;;20.38;17.08;;;16.00;48.90;;;;;;4989470;28;20057;-71
2022/03/02 11:57:41;;;;;;;18.00;16.10;;;16.20;48.30;;;;;;4988583;28;20187;-71
2022/03/02 12:00:37;;;;;;;19.95;17.75;;;15.70;48.50;;;;;;4990275;28;20076;-71
2022/03/02 12:03:08;;;;;;;19.20;17.13;;;15.50;49.10;;;;;;5003844;28;20049;-71
2022/03/02 12:05:34;;;;;;;18.40;16.50;;;15.80;49.90;;;;;;4989327;28;20521;-71
2022/03/02 12:08:12;;;;;;;20.08;17.98;;;15.90;49.30;;;;;;5009376;28;20120;-71
2022/03/02 12:10:51;;;;;;;21.45;17.38;;;15.60;49.30;;;;;;5006093;28;20077;-71
2022/03/02 12:13:18;;;;;;;21.73;18.80;;;15.40;50.40;;;;;;5012244;28;20164;-71
2022/03/02 12:15:45;;;;;;;20.02;17.92;;;15.50;51.90;;;;;;5003050;28;20053;-71
2022/03/02 12:18:13;;;;;;;21.17;18.80;;;15.60;52.20;;;;;;4989215;28;20057;-71
2022/03/02 12:20:48;;;;;;;21.08;18.60;;;15.70;52.10;;;;;;4991073;28;20090;-71
2022/03/02 12:23:20;;;;;;;;;;;15.70;51.80;;;;;;4998925;28;20089;-71
2022/03/02 12:25:47;;;;;;;20.17;17.95;;;15.60;52.30;;;;;;5004651;28;19917;-71
2022/03/02 12:28:15;;;;;;;21.67;19.27;;;15.50;52.20;;;;;;5010305;28;20135;-71
2022/03/02 12:30:41;;;;;;;22.10;19.45;;;15.50;51.30;;;;;;5007835;28;20405;-71
2022/03/02 12:33:08;;;;;;;19.55;17.23;;;15.60;51.30;;;;;;5001638;28;20856;-70
2022/03/02 12:35:35;;;;;;;20.52;18.33;;;15.80;50.70;;;;;;5010821;28;20056;-71
2022/03/02 12:38:07;;;;;;;19.10;17.10;;;15.80;49.70;;;;;;4991605;28;20045;-70
2022/03/02 12:40:39;;;;;;;20.63;18.38;;;15.90;49.00;;;;;;4976627;28;20185;-70